Time;durP1;ratioP1;P1;durP2;ratioP2;P2;SDS_P1;SDS_P2;PMS_P1;PMS_P2;Temp;Humidity;BMP_temperature;BMP_pressure;BME280_temperature;BME280_humidity;BME280_pressure;Samples;Min_cycle;Max_cycle;Signal;HPM_P1;HPM_P2
2023/03/20 00:01:43;;;;;;;4.13;3.38;;;;;;;8.53;86.60;100756.97;5033474;28;20557;-85
2023/03/20 00:04:09;;;;;;;7.78;3.90;;;;;;;8.62;86.87;100767.56;5029542;28;20568;-85
2023/03/20 00:06:34;;;;;;;5.65;4.05;;;;;;;8.71;87.52;100763.28;5033826;28;20034;-85
2023/03/20 00:09:03;;;;;;;5.68;4.40;;;;;;;8.79;88.95;100771.34;5033634;28;20038;-85
2023/03/20 00:11:36;;;;;;;7.82;5.00;;;;;;;8.93;88.58;100770.97;5035561;28;20167;-85
2023/03/20 00:14:12;;;;;;;5.30;4.22;;;;;;;8.99;88.43;100774.06;5034670;28;20038;-84
2023/03/20 00:16:41;;;;;;;5.00;4.10;;;;;;;9.07;90.09;100776.84;5036382;28;20095;-84
2023/03/20 00:19:15;;;;;;;4.95;3.90;;;;;;;9.12;89.69;100778.09;5027158;28;20450;-85
2023/03/20 00:21:40;;;;;;;6.82;4.22;;;;;;;9.22;89.32;100782.56;5028290;28;20041;-85
2023/03/20 00:24:06;;;;;;;6.57;4.43;;;;;;;9.25;89.48;100780.50;5030780;28;20038;-84
2023/03/20 00:26:35;;;;;;;4.72;4.10;;;;;;;9.32;88.91;100792.19;5030670;28;20033;-85
2023/03/20 00:29:03;;;;;;;4.72;3.58;;;;;;;9.35;89.38;100783.16;5033800;28;20056;-85
2023/03/20 00:31:35;;;;;;;4.45;3.60;;;;;;;9.38;89.62;100788.16;5033608;28;20044;-85
2023/03/20 00:34:09;;;;;;;6.40;4.43;;;;;;;9.42;89.33;100781.63;5028136;28;20538;-85
2023/03/20 00:36:34;;;;;;;5.03;3.85;;;;;;;9.48;89.09;100786.34;5032943;28;20037;-84
2023/03/20 00:39:00;;;;;;;4.95;3.70;;;;;;;9.47;89.44;100789.13;5043343;28;20034;-85
2023/03/20 00:41:31;;;;;;;4.80;3.67;;;;;;;9.49;89.23;100788.03;5044931;28;20037;-84
2023/03/20 00:44:03;;;;;;;4.03;3.20;;;;;;;9.52;88.28;100786.91;4996716;28;20041;-85
2023/03/20 00:46:34;;;;;;;3.78;3.25;;;;;;;9.54;88.25;100791.06;5018397;28;20037;-85
2023/03/20 00:49:00;;;;;;;3.70;3.17;;;;;;;9.57;88.31;100785.50;5016832;28;20029;-83
2023/03/20 00:51:29;;;;;;;4.07;3.28;;;;;;;9.59;88.29;100789.84;5016217;28;20101;-85
2023/03/20 00:53:55;;;;;;;5.25;3.17;;;;;;;9.58;88.08;100781.06;5031129;28;20082;-85
2023/03/20 00:56:39;;;;;;;4.13;3.00;;;;;;;9.56;88.74;100783.84;5026089;28;20049;-85
2023/03/20 00:59:06;;;;;;;3.75;2.53;;;;;;;9.57;88.28;100774.94;5035627;28;20033;-85
2023/03/20 01:01:31;;;;;;;3.53;2.90;;;;;;;9.63;87.46;100780.63;5013398;28;20033;-85
2023/03/20 01:03:59;;;;;;;4.35;3.17;;;;;;;9.64;87.69;100784.97;5033779;28;20045;-85
2023/03/20 01:06:25;;;;;;;3.85;2.90;;;;;;;9.64;87.78;100784.97;5021881;28;20041;-85
2023/03/20 01:08:51;;;;;;;4.50;2.97;;;;;;;9.65;87.47;100790.09;5029909;28;20377;-85
2023/03/20 01:11:22;;;;;;;4.10;2.60;;;;;;;9.65;87.34;100789.25;5022127;28;20101;-85
2023/03/20 01:13:48;;;;;;;;;;;;;;;9.65;87.89;100794.53;5034686;28;20103;-85
2023/03/20 01:16:20;;;;;;;4.22;3.00;;;;;;;9.65;87.30;100787.44;5020768;28;19920;-86
2023/03/20 01:18:46;;;;;;;2.83;2.22;;;;;;;9.67;87.39;100789.97;5035256;28;20153;-86
2023/03/20 01:21:12;;;;;;;4.88;2.53;;;;;;;9.70;86.79;100789.66;5015916;28;20033;-86
2023/03/20 01:23:38;;;;;;;2.72;2.20;;;;;;;9.69;86.93;100793.28;5020223;28;20045;-86
2023/03/20 01:26:18;;;;;;;3.15;2.60;;;;;;;9.71;86.72;100792.19;5037311;28;20436;-86
2023/03/20 01:28:47;;;;;;;2.80;2.10;;;;;;;9.68;87.25;100789.00;5012807;28;20038;-86
2023/03/20 01:31:15;;;;;;;3.53;2.53;;;;;;;9.68;86.89;100791.66;5017308;28;20049;-86
2023/03/20 01:33:45;;;;;;;2.60;2.30;;;;;;;9.69;86.97;100788.00;5032400;28;20061;-86
2023/03/20 01:36:14;;;;;;;2.75;2.10;;;;;;;9.67;87.04;100782.88;5005132;28;20034;-86
2023/03/20 01:38:41;;;;;;;2.75;2.10;;;;;;;9.72;86.59;100795.66;5009809;28;20128;-85
2023/03/20 01:41:15;;;;;;;3.40;2.15;;;;;;;9.70;86.58;100792.31;5030011;28;20397;-86
2023/03/20 01:43:44;;;;;;;4.05;2.50;;;;;;;9.72;86.39;100799.13;5013249;28;20053;-86
2023/03/20 01:46:10;;;;;;;3.75;2.28;;;;;;;9.71;86.77;100800.09;5010744;28;20052;-86
2023/03/20 01:48:48;;;;;;;3.08;2.25;;;;;;;9.73;86.42;100806.09;5032358;28;20672;-86
2023/03/20 01:51:20;;;;;;;2.47;1.83;;;;;;;9.71;86.90;100804.56;5026063;28;20037;-86
2023/03/20 01:53:49;;;;;;;2.95;2.20;;;;;;;9.70;86.50;100806.38;5012275;28;20104;-86
2023/03/20 01:56:18;;;;;;;3.42;2.08;;;;;;;9.70;86.36;100806.38;5024125;28;20219;-86
2023/03/20 01:58:53;;;;;;;2.85;1.90;;;;;;;9.71;86.60;100808.03;5030691;28;20072;-86
2023/03/20 02:01:19;;;;;;;2.17;1.70;;;;;;;9.70;86.40;100814.28;5009804;28;20042;-86
2023/03/20 02:03:50;;;;;;;2.80;1.92;;;;;;;9.71;86.13;100805.38;5031809;28;20049;-85
2023/03/20 02:06:20;;;;;;;3.17;1.80;;;;;;;9.72;86.17;100812.31;5003836;28;20088;-85
2023/03/20 02:08:52;;;;;;;2.17;1.73;;;;;;;9.70;86.19;100809.00;5047188;28;20033;-86
2023/03/20 02:11:22;;;;;;;2.78;2.00;;;;;;;9.71;86.03;100808.03;5044468;28;20068;-85
2023/03/20 02:13:54;;;;;;;2.47;1.90;;;;;;;9.68;86.37;100803.03;5039017;28;20033;-85
2023/03/20 02:16:20;;;;;;;2.85;1.75;;;;;;;9.69;86.19;100802.03;5024797;28;20045;-87
2023/03/20 02:18:52;;;;;;;2.55;1.90;;;;;;;9.70;86.52;100805.50;5031775;28;20038;-86
2023/03/20 02:21:43;;;;;;;2.70;1.88;;;;;;;9.70;86.30;100808.16;5028091;28;20053;-86
2023/03/20 02:24:43;;;;;;;2.97;2.00;;;;;;;9.68;86.55;100810.97;5036078;28;20065;-86
2023/03/20 02:27:17;;;;;;;3.03;1.90;;;;;;;9.69;86.71;100806.50;5043287;28;20091;-85
2023/03/20 02:30:11;;;;;;;2.58;1.88;;;;;;;9.68;86.51;100805.69;5039991;28;20029;-85
2023/03/20 02:33:39;;;;;;;3.20;2.10;;;;;;;9.68;86.43;100804.84;5030410;28;20038;-85
2023/03/20 02:36:34;;;;;;;2.80;1.77;;;;;;;9.66;86.76;100804.16;4986080;28;20073;-85
2023/03/20 02:39:11;;;;;;;2.90;2.10;;;;;;;9.68;86.84;100810.97;5028195;28;20037;-86
2023/03/20 02:41:47;;;;;;;3.00;1.98;;;;;;;9.71;86.42;100813.31;5032332;28;20068;-84
2023/03/20 02:44:31;;;;;;;2.60;2.05;;;;;;;9.70;86.41;100811.66;5044519;28;20061;-85
2023/03/20 02:47:00;;;;;;;3.50;2.30;;;;;;;9.73;86.79;100816.66;5025164;28;20046;-84
2023/03/20 02:49:40;;;;;;;3.28;1.90;;;;;;;9.69;87.35;100809.97;5059173;28;20048;-86
2023/03/20 02:52:38;;;;;;;2.65;2.05;;;;;;;9.70;87.11;100814.28;5042675;28;20034;-86
2023/03/20 02:55:20;;;;;;;2.80;2.20;;;;;;;9.70;86.78;100810.78;5031797;28;20072;-86
2023/03/20 02:58:22;;;;;;;3.42;2.20;;;;;;;9.69;86.71;100809.97;5014398;28;20098;-86
2023/03/20 03:01:05;;;;;;;2.70;2.00;;;;;;;9.69;86.97;100811.78;5025740;28;20485;-86
2023/03/20 03:03:38;;;;;;;3.60;2.28;;;;;;;9.70;86.58;100810.78;5023693;28;20133;-85
2023/03/20 03:06:13;;;;;;;2.78;2.00;;;;;;;9.66;87.00;100810.25;5036087;28;20034;-85
2023/03/20 03:08:47;;;;;;;3.42;2.20;;;;;;;9.67;86.75;100814.56;5019970;28;20040;-86
2023/03/20 03:11:18;;;;;;;2.50;1.80;;;;;;;9.68;86.76;100815.41;5016786;28;20645;-85
2023/03/20 03:14:06;;;;;;;3.40;2.53;;;;;;;9.69;86.81;100828.44;5021476;28;20228;-85
2023/03/20 03:16:55;;;;;;;3.35;2.45;;;;;;;9.68;86.65;100816.25;5008320;28;20046;-85
2023/03/20 03:19:25;;;;;;;3.65;2.60;;;;;;;9.69;86.84;100820.53;5010825;28;20060;-83
2023/03/20 03:21:51;;;;;;;3.17;2.35;;;;;;;9.69;86.61;100820.53;5023656;28;20103;-85
2023/03/20 03:24:37;;;;;;;3.13;2.30;;;;;;;9.70;86.46;100819.56;5031418;28;20069;-86
2023/03/20 03:27:17;;;;;;;4.35;2.85;;;;;;;9.69;86.84;100823.16;5021889;28;20037;-86
2023/03/20 03:29:59;;;;;;;5.82;3.20;;;;;;;9.66;87.22;100820.00;5017871;28;20057;-86
2023/03/20 03:32:38;;;;;;;4.82;3.15;;;;;;;9.64;87.11;100811.38;5017110;28;20097;-85
2023/03/20 03:35:05;;;;;;;4.60;2.95;;;;;;;9.66;86.75;100820.00;5032318;28;20029;-85
2023/03/20 03:38:14;;;;;;;4.03;3.00;;;;;;;9.64;86.71;100814.00;5033082;28;20039;-86
2023/03/20 03:40:50;;;;;;;3.97;2.78;;;;;;;9.64;87.44;100811.38;5016965;28;20060;-85
2023/03/20 03:43:47;;;;;;;4.65;3.00;;;;;;;9.63;86.88;100814.97;5045381;28;20037;-86
2023/03/20 03:46:25;;;;;;;4.25;3.05;;;;;;;9.60;87.29;100809.97;5013992;28;20041;-87
2023/03/20 03:48:56;;;;;;;3.38;2.85;;;;;;;9.57;88.08;100813.72;5033044;28;20040;-85
2023/03/20 03:51:30;;;;;;;4.80;2.92;;;;;;;9.57;87.27;100805.81;5027779;28;20071;-85
2023/03/20 03:54:07;;;;;;;5.25;2.92;;;;;;;9.54;87.81;100804.28;5024992;28;20091;-85
2023/03/20 03:56:41;;;;;;;5.00;3.38;;;;;;;9.57;87.19;100816.38;5014092;28;20051;-85
2023/03/20 03:59:27;;;;;;;5.18;3.58;;;;;;;9.58;87.89;100812.75;5040334;28;20100;-84
2023/03/20 04:02:02;;;;;;;4.45;3.47;;;;;;;9.54;87.67;100809.56;5043721;28;20049;-85
2023/03/20 04:04:31;;;;;;;5.57;3.63;;;;;;;9.55;87.49;100819.13;5033074;28;20037;-86
2023/03/20 04:06:57;;;;;;;5.60;3.38;;;;;;;9.58;87.35;100825.94;5042787;28;20041;-86
2023/03/20 04:09:31;;;;;;;4.28;3.10;;;;;;;9.56;87.19;100826.09;5027793;28;20042;-86
2023/03/20 04:12:43;;;;;;;4.18;3.10;;;;;;;9.57;87.23;100830.38;5028858;28;20041;-87
2023/03/20 04:15:09;;;;;;;5.10;3.03;;;;;;;9.56;87.60;100831.38;5058589;28;20030;-87
2023/03/20 04:17:39;;;;;;;4.90;3.47;;;;;;;9.64;86.77;100835.13;5044174;28;20041;-86
2023/03/20 04:20:06;;;;;;;5.07;3.15;;;;;;;9.63;87.35;100836.09;5042703;28;20064;-87
2023/03/20 04:22:37;;;;;;;4.45;3.38;;;;;;;9.60;87.11;100836.38;5039380;28;20041;-85
2023/03/20 04:25:25;;;;;;;4.50;3.15;;;;;;;9.59;87.47;100845.28;5034444;28;20106;-84
2023/03/20 04:27:54;;;;;;;4.35;3.30;;;;;;;9.59;87.62;100842.63;5052021;28;20543;-85
2023/03/20 04:30:33;;;;;;;4.75;3.38;;;;;;;9.61;87.09;100840.69;5031818;28;20068;-85
2023/03/20 04:32:59;;;;;;;5.13;3.38;;;;;;;9.60;87.13;100839.00;5036842;28;20033;-85
2023/03/20 04:35:27;;;;;;;3.78;3.22;;;;;;;9.59;87.61;100838.19;5043064;28;20025;-84
2023/03/20 04:37:57;;;;;;;5.18;3.50;;;;;;;9.65;87.12;100850.00;5024868;28;20101;-84
2023/03/20 04:40:26;;;;;;;4.97;3.72;;;;;;;9.64;87.35;100848.34;5035712;28;20043;-85
2023/03/20 04:42:54;;;;;;;5.75;3.92;;;;;;;9.66;87.47;100844.59;5045380;28;20041;-85
2023/03/20 04:45:23;;;;;;;4.03;3.20;;;;;;;9.65;87.17;100842.06;5047895;28;20033;-84
2023/03/20 04:47:49;;;;;;;6.22;4.10;;;;;;;9.67;87.66;100840.13;5051208;28;20039;-87
2023/03/20 04:50:15;;;;;;;4.60;3.55;;;;;;;9.67;86.87;100834.84;5033765;28;20100;-86
2023/03/20 04:52:47;;;;;;;5.93;3.95;;;;;;;9.68;87.38;100837.38;5035246;28;20048;-86
2023/03/20 04:55:16;;;;;;;6.38;3.70;;;;;;;9.67;87.52;100840.94;5043062;28;20037;-86
2023/03/20 04:57:49;;;;;;;5.10;3.90;;;;;;;9.71;86.72;100839.72;5042773;28;20400;-85
2023/03/20 05:00:22;;;;;;;5.80;4.15;;;;;;;9.69;87.32;100840.81;5043207;28;20053;-85
2023/03/20 05:02:52;;;;;;;6.28;4.25;;;;;;;9.73;86.85;100842.22;5026500;28;20041;-85
2023/03/20 05:05:42;;;;;;;7.03;4.57;;;;;;;9.71;87.10;100845.00;5027932;28;20037;-84
2023/03/20 05:08:22;;;;;;;6.30;4.35;;;;;;;9.73;86.82;100848.34;5025178;28;20043;-87
2023/03/20 05:10:53;;;;;;;6.90;4.60;;;;;;;9.77;86.57;100859.44;5047262;28;20061;-86
2023/03/20 05:13:20;;;;;;;6.37;4.60;;;;;;;9.75;86.96;100861.41;5054168;28;20067;-85
2023/03/20 05:16:06;;;;;;;5.30;4.10;;;;;;;9.72;87.13;100856.38;5057159;28;20099;-84
2023/03/20 05:18:39;;;;;;;5.88;4.28;;;;;;;9.73;87.29;100861.53;5036151;28;20046;-86
2023/03/20 05:21:14;;;;;;;6.15;4.43;;;;;;;9.71;87.31;100855.56;5053681;28;20053;-86
2023/03/20 05:24:05;;;;;;;7.43;5.03;;;;;;;9.70;87.47;100855.69;5054074;28;20105;-86
2023/03/20 05:26:48;;;;;;;6.90;5.20;;;;;;;9.71;87.24;100868.75;5028124;28;20064;-85
2023/03/20 05:29:19;;;;;;;6.50;4.72;;;;;;;9.68;87.47;100866.41;5023386;28;20044;-85
2023/03/20 05:31:51;;;;;;;6.30;4.18;;;;;;;9.69;87.36;100867.22;5047863;28;20046;-86
2023/03/20 05:34:26;;;;;;;7.05;4.78;;;;;;;9.70;87.03;100875.03;5035658;28;20044;-85
2023/03/20 05:36:54;;;;;;;7.30;4.82;;;;;;;9.73;87.14;100876.56;5046569;28;20040;-85
2023/03/20 05:39:21;;;;;;;7.60;4.93;;;;;;;9.75;86.94;100871.97;5010753;28;20029;-86
2023/03/20 05:41:53;;;;;;;6.60;5.07;;;;;;;9.73;87.33;100863.34;5044875;28;20041;-86
2023/03/20 05:44:30;;;;;;;8.07;5.55;;;;;;;9.74;87.42;100863.19;5026301;28;20037;-85
2023/03/20 05:47:02;;;;;;;7.20;5.22;;;;;;;9.74;87.29;100862.38;5056022;28;20068;-86
2023/03/20 05:49:35;;;;;;;6.90;5.57;;;;;;;9.75;87.42;100856.97;5033529;28;20036;-86
2023/03/20 05:52:10;;;;;;;6.57;5.18;;;;;;;9.78;87.40;100851.38;5040978;28;20029;-85
2023/03/20 05:54:39;;;;;;;7.35;5.35;;;;;;;9.81;87.23;100846.81;5033465;28;20032;-85
2023/03/20 05:57:23;;;;;;;6.85;4.80;;;;;;;9.85;87.24;100843.75;5045532;28;20033;-87
2023/03/20 06:00:30;;;;;;;7.40;5.63;;;;;;;9.91;86.93;100837.06;5042127;28;20079;-86
2023/03/20 06:03:18;;;;;;;8.15;6.00;;;;;;;9.99;86.88;100837.22;5033550;28;20041;-86
2023/03/20 06:05:43;;;;;;;7.38;5.70;;;;;;;10.04;86.80;100850.84;5030177;28;20065;-85
2023/03/20 06:08:09;;;;;;;8.32;5.90;;;;;;;10.06;86.41;100848.91;5036035;28;20117;-86
2023/03/20 06:10:34;;;;;;;8.98;5.65;;;;;;;10.09;86.26;100858.34;5048387;28;20040;-86
2023/03/20 06:13:00;;;;;;;7.93;5.68;;;;;;;10.08;86.81;100864.59;5035952;28;20124;-86
2023/03/20 06:15:28;;;;;;;8.00;5.82;;;;;;;10.09;86.62;100864.47;5024486;28;20041;-86
2023/03/20 06:17:54;;;;;;;8.07;5.60;;;;;;;10.12;86.54;100879.19;5019791;28;20451;-86
2023/03/20 06:20:20;;;;;;;8.20;5.90;;;;;;;10.09;86.82;100875.03;5021721;28;20056;-85
2023/03/20 06:22:48;;;;;;;7.05;5.72;;;;;;;10.09;86.56;100879.50;5034421;28;20105;-84
2023/03/20 06:25:13;;;;;;;8.68;5.43;;;;;;;10.08;86.31;100885.72;5035527;28;20038;-86
2023/03/20 06:27:39;;;;;;;10.25;5.97;;;;;;;10.11;86.46;100891.59;5044629;28;20043;-85
2023/03/20 06:30:05;;;;;;;10.02;6.68;;;;;;;10.09;86.36;100890.06;5023380;28;20124;-86
2023/03/20 06:32:30;;;;;;;10.20;6.38;;;;;;;10.04;86.87;100892.28;5037875;28;20041;-85
2023/03/20 06:34:56;;;;;;;7.65;6.15;;;;;;;10.05;86.34;100886.00;5035471;28;20029;-85
2023/03/20 06:37:21;;;;;;;8.02;5.95;;;;;;;10.07;86.30;100892.81;5021541;28;20026;-85
2023/03/20 06:39:47;;;;;;;8.82;5.78;;;;;;;10.07;86.62;100892.81;5046811;28;20033;-86
2023/03/20 06:42:13;;;;;;;7.30;5.68;;;;;;;10.04;86.76;100897.56;5019109;28;20052;-86
2023/03/20 06:44:41;;;;;;;8.90;6.18;;;;;;;10.04;86.69;100895.75;5028840;28;20041;-86
2023/03/20 06:47:06;;;;;;;8.10;6.30;;;;;;;10.07;86.55;100892.81;5045102;28;20037;-85
2023/03/20 06:49:31;;;;;;;9.32;6.57;;;;;;;10.10;86.54;100897.00;5026214;28;20041;-87
2023/03/20 06:51:58;;;;;;;8.82;6.43;;;;;;;10.07;86.80;100900.75;5024379;28;20544;-86
2023/03/20 06:54:23;;;;;;;10.55;6.35;;;;;;;10.13;86.76;100907.28;5018329;28;20045;-85
2023/03/20 06:56:49;;;;;;;8.52;6.57;;;;;;;10.12;86.63;100908.25;5022928;28;20040;-87
2023/03/20 06:59:14;;;;;;;8.32;5.72;;;;;;;10.10;86.71;100910.22;5031942;28;20052;-86
2023/03/20 07:01:40;;;;;;;9.02;6.60;;;;;;;10.11;86.37;100912.72;5006464;28;20400;-86
2023/03/20 07:04:16;;;;;;;9.23;5.97;;;;;;;10.04;86.68;100913.41;5037223;28;20030;-86
2023/03/20 07:06:54;;;;;;;8.93;6.07;;;;;;;9.97;87.26;100919.25;5039274;28;20044;-85
2023/03/20 07:09:21;;;;;;;9.32;6.38;;;;;;;9.95;87.44;100918.53;5033112;28;20061;-87
2023/03/20 07:11:47;;;;;;;9.70;6.60;;;;;;;9.96;87.08;100911.44;5039447;28;20117;-86
2023/03/20 07:14:13;;;;;;;8.10;6.40;;;;;;;9.90;87.13;100917.31;5017364;28;20057;-87
2023/03/20 07:16:42;;;;;;;8.52;6.53;;;;;;;9.87;87.59;100912.31;5036310;28;20128;-87
2023/03/20 07:19:07;;;;;;;8.55;5.93;;;;;;;9.86;87.65;100919.38;5040521;28;20033;-87
2023/03/20 07:21:33;;;;;;;9.55;6.97;;;;;;;9.86;87.90;100915.91;5023723;28;20045;-87
2023/03/20 07:24:00;;;;;;;8.00;5.97;;;;;;;9.79;88.49;100911.16;5013865;28;20124;-85
2023/03/20 07:26:25;;;;;;;10.68;6.85;;;;;;;9.81;88.06;100913.66;5036481;28;20041;-86
2023/03/20 07:28:51;;;;;;;9.32;6.53;;;;;;;9.84;87.98;100916.03;5031459;28;20145;-86
2023/03/20 07:31:22;;;;;;;9.20;7.03;;;;;;;9.85;87.95;100915.06;5000111;28;20041;-85
2023/03/20 07:33:48;;;;;;;10.73;7.28;;;;;;;9.87;87.95;100905.19;5032389;28;20035;-86
2023/03/20 07:36:13;;;;;;;10.48;7.25;;;;;;;9.91;87.77;100905.75;5031054;28;20117;-87
2023/03/20 07:38:38;;;;;;;9.80;7.18;;;;;;;9.89;87.83;100913.84;5032592;28;20045;-85
2023/03/20 07:41:18;;;;;;;10.07;7.28;;;;;;;9.85;88.43;100914.25;5022376;28;20045;-85
2023/03/20 07:44:19;;;;;;;;;;;;;;;;;;;;;
2023/03/20 07:50:06;;;;;;;11.10;8.38;;;;;;;9.60;90.23;100920.84;5025886;28;20515;-86
2023/03/20 07:53:08;;;;;;;10.23;7.82;;;;;;;9.54;90.54;100924.88;4995596;28;20047;-85
2023/03/20 07:55:33;;;;;;;12.30;8.25;;;;;;;9.53;90.96;100931.13;5031943;28;20029;-85
2023/03/20 07:57:59;;;;;;;10.52;7.95;;;;;;;9.52;91.08;100927.66;5020527;28;20050;-84
2023/03/20 08:00:24;;;;;;;11.80;8.52;;;;;;;9.53;91.28;100928.47;5024985;28;20053;-86
2023/03/20 08:02:55;;;;;;;11.52;8.57;;;;;;;9.54;91.10;100931.00;5021916;28;20048;-86
2023/03/20 08:05:26;;;;;;;12.23;8.98;;;;;;;9.55;91.41;100927.38;5042744;28;20026;-84
2023/03/20 08:07:51;;;;;;;12.82;9.02;;;;;;;9.55;91.32;100923.91;5015059;23;20411;-83
2023/03/20 08:10:17;;;;;;;13.18;9.18;;;;;;;9.53;91.03;100923.19;5003944;28;20038;-82
2023/03/20 08:12:42;;;;;;;11.30;8.30;;;;;;;9.54;91.44;100936.28;5015738;28;20042;-84
2023/03/20 08:15:08;;;;;;;12.07;8.82;;;;;;;9.60;91.18;100931.41;5015909;28;20054;-83
2023/03/20 08:17:34;;;;;;;14.43;9.65;;;;;;;9.60;91.69;100936.69;5020438;28;20034;-83
2023/03/20 08:19:59;;;;;;;13.15;8.63;;;;;;;9.57;92.04;100933.34;5020852;28;20034;-81
2023/03/20 08:22:25;;;;;;;11.65;8.73;;;;;;;9.67;91.40;100933.38;5017308;28;20042;-83
2023/03/20 08:24:50;;;;;;;13.27;9.05;;;;;;;9.69;91.76;100936.72;5016077;28;20441;-83
2023/03/20 08:27:16;;;;;;;12.77;9.25;;;;;;;9.72;91.43;100936.44;5016628;28;20038;-85
2023/03/20 08:29:43;;;;;;;13.07;9.52;;;;;;;9.74;91.58;100938.94;5017036;28;20522;-83
2023/03/20 08:32:08;;;;;;;12.88;8.95;;;;;;;9.77;91.34;100939.53;5012807;28;20045;-84
2023/03/20 08:34:33;;;;;;;15.13;9.00;;;;;;;9.79;91.32;100942.00;5016922;28;20034;-83
2023/03/20 08:36:59;;;;;;;12.57;8.88;;;;;;;9.85;90.64;100941.47;5011330;28;20034;-84
2023/03/20 08:39:25;;;;;;;12.52;9.23;;;;;;;9.86;90.93;100943.13;5016627;28;20038;-84
2023/03/20 08:41:50;;;;;;;13.82;9.20;;;;;;;9.94;90.35;100948.59;5013978;28;20106;-83
2023/03/20 08:44:16;;;;;;;14.15;9.45;;;;;;;9.94;90.16;100943.31;5007765;28;20045;-84
2023/03/20 08:46:43;;;;;;;11.95;9.02;;;;;;;9.94;90.60;100945.13;5032508;28;20034;-83
2023/03/20 08:49:09;;;;;;;13.48;8.88;;;;;;;9.96;90.68;100948.44;5015956;28;20034;-83
2023/03/20 08:51:34;;;;;;;11.98;8.07;;;;;;;10.03;90.70;100956.66;5013194;28;20100;-84
2023/03/20 08:54:00;;;;;;;12.77;8.98;;;;;;;10.06;90.53;100959.88;5016207;28;20126;-84
2023/03/20 08:56:25;;;;;;;11.70;8.75;;;;;;;10.16;90.08;100959.88;5014779;28;20062;-84
2023/03/20 08:58:52;;;;;;;12.60;8.38;;;;;;;10.18;90.39;100964.03;5011106;28;20057;-84
2023/03/20 09:01:18;;;;;;;12.57;8.40;;;;;;;10.23;90.11;100968.09;5009024;28;20101;-84
2023/03/20 09:03:43;;;;;;;13.98;8.57;;;;;;;10.30;89.87;100972.69;5009502;28;20089;-84
2023/03/20 09:06:09;;;;;;;14.73;9.52;;;;;;;10.36;89.25;100976.59;5012304;28;20084;-83
2023/03/20 09:08:35;;;;;;;14.50;9.25;;;;;;;10.37;89.00;100967.69;5015295;28;20073;-85
2023/03/20 09:11:00;;;;;;;14.23;9.50;;;;;;;10.35;89.08;100972.28;5018249;28;20046;-84
2023/03/20 09:13:26;;;;;;;18.80;9.80;;;;;;;10.35;89.07;100981.06;5023413;28;20042;-83
2023/03/20 09:15:52;;;;;;;16.80;8.93;;;;;;;10.34;89.13;100981.19;5049534;23;20133;-87
2023/03/20 09:18:18;;;;;;;15.52;9.30;;;;;;;10.33;89.08;100971.59;5032124;28;20495;-86
2023/03/20 09:20:44;;;;;;;12.73;8.25;;;;;;;10.32;89.26;100978.69;5034675;28;20045;-86
2023/03/20 09:23:10;;;;;;;15.20;9.20;;;;;;;10.30;89.18;100978.00;5037072;28;20152;-86
2023/03/20 09:25:35;;;;;;;11.45;7.07;;;;;;;10.26;89.50;100983.66;5034059;28;20499;-86
2023/03/20 09:28:01;;;;;;;13.77;8.23;;;;;;;10.29;89.49;100981.59;5034126;28;20037;-86
2023/03/20 09:30:26;;;;;;;11.57;7.45;;;;;;;10.37;89.61;100984.38;5042340;28;20053;-85
2023/03/20 09:32:51;;;;;;;13.23;8.35;;;;;;;10.46;89.41;100992.44;5043629;28;20026;-85
2023/03/20 09:35:17;;;;;;;14.57;8.80;;;;;;;10.57;89.04;100989.66;5043831;28;20090;-87
2023/03/20 09:37:44;;;;;;;14.23;8.00;;;;;;;10.67;89.14;100990.47;5037009;28;20699;-86
2023/03/20 09:40:30;;;;;;;10.73;6.93;;;;;;;10.79;88.71;100992.00;5033239;28;20034;-87
2023/03/20 09:43:17;;;;;;;14.02;8.73;;;;;;;10.96;88.30;100989.59;5034185;28;20048;-86
2023/03/20 09:46:00;;;;;;;16.77;9.07;;;;;;;11.16;87.96;100995.69;5031893;28;20516;-87
2023/03/20 09:48:47;;;;;;;16.08;9.00;;;;;;;11.36;87.54;100997.28;5038122;28;20043;-85
2023/03/20 09:51:34;;;;;;;13.57;7.82;;;;;;;11.70;87.58;100991.41;5034535;28;20029;-86
2023/03/20 09:54:07;;;;;;;13.77;8.38;;;;;;;11.92;86.46;100990.22;5034280;28;20785;-86
2023/03/20 09:56:33;;;;;;;11.40;7.38;;;;;;;11.91;86.18;100991.19;5033562;28;20030;-86
2023/03/20 09:59:05;;;;;;;14.48;8.40;;;;;;;11.87;86.43;100992.47;5040053;28;20247;-86
2023/03/20 10:01:43;;;;;;;12.38;8.02;;;;;;;11.87;86.47;100998.59;5031628;28;20056;-87
2023/03/20 10:04:10;;;;;;;11.93;6.90;;;;;;;11.94;86.10;100995.34;5030337;28;20093;-87
2023/03/20 10:06:36;;;;;;;16.08;8.48;;;;;;;11.99;85.80;101001.03;5041234;28;20060;-85
2023/03/20 10:09:12;;;;;;;14.32;8.15;;;;;;;11.99;85.24;100995.72;5029151;28;20385;-86
2023/03/20 10:11:59;;;;;;;13.23;8.02;;;;;;;12.05;84.86;100990.66;5031591;28;20535;-86
2023/03/20 10:14:59;;;;;;;15.35;8.35;;;;;;;12.11;84.17;100999.84;5021955;28;20042;-86
2023/03/20 10:17:43;;;;;;;15.50;8.70;;;;;;;12.09;83.81;100991.22;5029745;28;20052;-86
2023/03/20 10:20:19;;;;;;;11.80;7.00;;;;;;;12.06;83.73;100991.50;5029918;28;20038;-86
2023/03/20 10:22:49;;;;;;;11.82;7.13;;;;;;;12.07;83.42;100993.19;5027970;28;20044;-87
2023/03/20 10:25:23;;;;;;;14.68;8.98;;;;;;;12.03;83.22;100989.97;5030039;28;20064;-86
2023/03/20 10:27:59;;;;;;;12.88;7.78;;;;;;;11.97;82.65;100992.41;5030565;28;20053;-86
2023/03/20 10:30:33;;;;;;;13.95;8.43;;;;;;;11.83;82.98;100988.41;5030734;28;20033;-86
2023/03/20 10:33:15;;;;;;;14.77;8.40;;;;;;;11.70;82.84;100991.41;5029115;28;20053;-86
2023/03/20 10:36:18;;;;;;;11.80;7.20;;;;;;;11.66;83.01;100990.88;5031784;28;20149;-86
2023/03/20 10:39:05;;;;;;;13.60;7.75;;;;;;;11.67;83.49;100989.06;5033349;28;20091;-86
2023/03/20 10:41:46;;;;;;;13.05;8.13;;;;;;;11.84;82.93;100988.25;5033679;28;20056;-86
2023/03/20 10:44:23;;;;;;;16.50;9.32;;;;;;;12.13;82.08;100989.09;5032978;28;20404;-86
2023/03/20 10:46:52;;;;;;;15.00;8.32;;;;;;;12.41;81.67;100974.75;5029102;28;20095;-86
2023/03/20 10:49:39;;;;;;;13.90;8.40;;;;;;;12.90;81.46;100982.28;5030113;28;20034;-86
2023/03/20 10:52:12;;;;;;;9.25;6.25;;;;;;;13.31;79.73;100991.34;5024644;28;20091;-86
2023/03/20 10:54:45;;;;;;;11.98;8.00;;;;;;;13.53;78.18;100983.81;5030011;28;20041;-86
2023/03/20 10:57:34;;;;;;;11.48;7.50;;;;;;;13.65;78.65;100973.72;5031451;28;20057;-87
2023/03/20 11:00:00;;;;;;;13.82;8.32;;;;;;;13.67;78.03;100980.53;5029078;28;20049;-86
2023/03/20 11:02:30;;;;;;;18.05;11.15;;;;;;;13.57;75.94;100977.19;5028318;28;20585;-86
2023/03/20 11:04:59;;;;;;;14.32;8.90;;;;;;;13.52;77.10;100974.19;5034425;28;20072;-86
2023/03/20 11:07:34;;;;;;;12.00;7.00;;;;;;;13.49;77.27;100975.34;5035294;28;20033;-86
2023/03/20 11:10:09;;;;;;;9.68;6.32;;;;;;;13.43;76.76;100975.13;5031903;28;20053;-86
2023/03/20 11:12:46;;;;;;;12.32;6.65;;;;;;;13.30;75.57;100979.06;5027789;28;20042;-87
2023/03/20 11:15:31;;;;;;;10.25;6.65;;;;;;;13.00;75.14;100987.50;5029521;28;20030;-86
2023/03/20 11:18:02;;;;;;;11.77;7.40;;;;;;;12.73;75.38;100978.69;5030150;28;20034;-86
2023/03/20 11:20:38;;;;;;;13.25;7.95;;;;;;;12.77;76.74;100980.03;5028293;28;20044;-86
2023/03/20 11:23:06;;;;;;;16.55;9.07;;;;;;;12.90;76.71;100982.28;5029019;28;20099;-86
2023/03/20 11:25:36;;;;;;;12.25;7.50;;;;;;;13.06;75.91;100978.88;5028296;28;20530;-86
2023/03/20 11:28:25;;;;;;;9.55;6.35;;;;;;;13.45;75.48;100971.31;5029501;28;20500;-86
2023/03/20 11:31:01;;;;;;;10.40;6.25;;;;;;;13.92;74.28;100975.28;5028385;28;20033;-86
2023/03/20 11:33:28;;;;;;;11.48;7.30;;;;;;;14.18;72.16;100968.03;5026880;28;20113;-86
2023/03/20 11:35:55;;;;;;;10.63;6.82;;;;;;;14.52;72.82;100971.56;5031719;28;20113;-86
2023/03/20 11:38:21;;;;;;;9.40;5.82;;;;;;;14.71;71.61;100971.25;5025907;28;20324;-85
2023/03/20 11:40:51;;;;;;;12.10;7.40;;;;;;;15.34;69.62;100968.75;5022714;28;20046;-86
2023/03/20 11:43:27;;;;;;;9.60;6.10;;;;;;;;;;5024314;28;20095;-86
2023/03/20 11:45:56;;;;;;;8.13;5.57;;;;;;;;;;5031306;28;20573;-86
2023/03/20 11:48:35;;;;;;;8.23;5.07;;;;;;;;;;5032906;28;20073;-86
2023/03/20 11:51:02;;;;;;;9.00;5.47;;;;;;;;;;5032455;28;20033;-86
2023/03/20 11:53:32;;;;;;;8.00;5.20;;;;;;;17.00;nan;100941.63;5029598;28;20117;-86
2023/03/20 11:56:04;;;;;;;8.57;5.82;;;;;;;16.54;nan;100953.19;5028006;28;20030;-86
2023/03/20 11:58:30;;;;;;;8.07;5.45;;;;;;;16.21;nan;100944.63;5029574;28;20037;-86
2023/03/20 12:00:56;;;;;;;11.25;7.65;;;;;;;15.74;nan;100941.13;5030462;28;20042;-86